sensor_id;sensor_type;location;lat;lon;timestamp;P1;durP1;ratioP1;P2;durP2;ratioP2
16512;SDS011;8369;48.030;11.598;2023-02-04T15:43:36;2.03;;;1.57;;
16512;SDS011;8369;48.030;11.598;2023-02-04T15:46:03;2.33;;;1.67;;
16512;SDS011;8369;48.030;11.598;2023-02-04T15:48:30;1.70;;;1.60;;
16512;SDS011;8369;48.030;11.598;2023-02-04T15:50:57;2.20;;;1.60;;
16512;SDS011;8369;48.030;11.598;2023-02-04T15:53:23;2.60;;;1.77;;
16512;SDS011;8369;48.030;11.598;2023-02-04T15:55:50;2.77;;;1.93;;
16512;SDS011;8369;48.030;11.598;2023-02-04T15:58:16;1.80;;;1.60;;
16512;SDS011;8369;48.030;11.598;2023-02-04T16:00:42;2.30;;;1.50;;
16512;SDS011;8369;48.030;11.598;2023-02-04T16:03:09;1.60;;;1.37;;
16512;SDS011;8369;48.030;11.598;2023-02-04T16:05:35;1.90;;;1.50;;
16512;SDS011;8369;48.030;11.598;2023-02-04T16:08:02;3.37;;;1.80;;
16512;SDS011;8369;48.030;11.598;2023-02-04T16:10:31;2.07;;;1.77;;
16512;SDS011;8369;48.030;11.598;2023-02-04T16:12:57;2.07;;;1.73;;
16512;SDS011;8369;48.030;11.598;2023-02-04T16:15:24;2.73;;;1.60;;
16512;SDS011;8369;48.030;11.598;2023-02-04T16:17:50;1.73;;;1.43;;
16512;SDS011;8369;48.030;11.598;2023-02-04T16:20:16;2.27;;;1.53;;
16512;SDS011;8369;48.030;11.598;2023-02-04T16:22:42;3.30;;;1.47;;
16512;SDS011;8369;48.030;11.598;2023-02-04T16:25:14;2.77;;;1.80;;
16512;SDS011;8369;48.030;11.598;2023-02-04T16:27:40;5.30;;;3.73;;
16512;SDS011;8369;48.030;11.598;2023-02-04T16:30:06;7.67;;;4.60;;
16512;SDS011;8369;48.030;11.598;2023-02-04T16:32:33;4.43;;;3.13;;
16512;SDS011;8369;48.030;11.598;2023-02-04T16:35:01;4.73;;;2.90;;
16512;SDS011;8369;48.030;11.598;2023-02-04T16:37:28;8.73;;;3.97;;
16512;SDS011;8369;48.030;11.598;2023-02-04T16:39:55;4.50;;;2.47;;
16512;SDS011;8369;48.030;11.598;2023-02-04T16:42:22;6.10;;;4.20;;
16512;SDS011;8369;48.030;11.598;2023-02-04T16:44:48;7.00;;;3.20;;
16512;SDS011;8369;48.030;11.598;2023-02-04T16:47:15;3.03;;;2.50;;
16512;SDS011;8369;48.030;11.598;2023-02-04T16:49:41;3.03;;;2.23;;
16512;SDS011;8369;48.030;11.598;2023-02-04T16:52:09;1.90;;;1.70;;
16512;SDS011;8369;48.030;11.598;2023-02-04T16:54:35;2.33;;;1.70;;
16512;SDS011;8369;48.030;11.598;2023-02-04T16:57:01;5.40;;;1.60;;
16512;SDS011;8369;48.030;11.598;2023-02-04T16:59:30;3.03;;;1.30;;
16512;SDS011;8369;48.030;11.598;2023-02-04T17:01:57;2.33;;;1.27;;
16512;SDS011;8369;48.030;11.598;2023-02-04T17:04:27;2.03;;;1.60;;
16512;SDS011;8369;48.030;11.598;2023-02-04T17:06:54;3.80;;;2.10;;
16512;SDS011;8369;48.030;11.598;2023-02-04T17:09:20;5.27;;;3.37;;
16512;SDS011;8369;48.030;11.598;2023-02-04T17:11:47;8.17;;;3.90;;
16512;SDS011;8369;48.030;11.598;2023-02-04T17:14:13;3.60;;;2.67;;
16512;SDS011;8369;48.030;11.598;2023-02-04T17:16:43;3.20;;;2.00;;
16512;SDS011;8369;48.030;11.598;2023-02-04T17:19:10;2.47;;;2.13;;
16512;SDS011;8369;48.030;11.598;2023-02-04T17:21:37;5.63;;;3.60;;
16512;SDS011;8369;48.030;11.598;2023-02-04T17:24:07;5.93;;;3.17;;
16512;SDS011;8369;48.030;11.598;2023-02-04T17:26:33;3.47;;;1.80;;
16512;SDS011;8369;48.030;11.598;2023-02-04T17:29:10;1.77;;;1.60;;
16512;SDS011;8369;48.030;11.598;2023-02-04T17:31:37;2.30;;;2.00;;
16512;SDS011;8369;48.030;11.598;2023-02-04T17:34:04;1.50;;;1.33;;
16512;SDS011;8369;48.030;11.598;2023-02-04T17:36:30;1.63;;;1.53;;
16512;SDS011;8369;48.030;11.598;2023-02-04T17:38:56;3.50;;;2.33;;
16512;SDS011;8369;48.030;11.598;2023-02-04T17:41:22;5.03;;;3.07;;
16512;SDS011;8369;48.030;11.598;2023-02-04T17:43:48;5.37;;;4.10;;
16512;SDS011;8369;48.030;11.598;2023-02-04T17:46:15;8.73;;;4.20;;
16512;SDS011;8369;48.030;11.598;2023-02-04T17:48:42;5.57;;;3.60;;
16512;SDS011;8369;48.030;11.598;2023-02-04T17:51:08;3.73;;;2.30;;
16512;SDS011;8369;48.030;11.598;2023-02-04T17:53:35;2.90;;;1.90;;
16512;SDS011;8369;48.030;11.598;2023-02-04T17:56:01;3.70;;;1.80;;
16512;SDS011;8369;48.030;11.598;2023-02-04T17:58:30;2.00;;;1.70;;
16512;SDS011;8369;48.030;11.598;2023-02-04T18:00:57;2.83;;;1.70;;
16512;SDS011;8369;48.030;11.598;2023-02-04T18:03:25;2.53;;;2.20;;
16512;SDS011;8369;48.030;11.598;2023-02-04T18:05:54;4.57;;;3.10;;
16512;SDS011;8369;48.030;11.598;2023-02-04T18:08:21;5.13;;;2.70;;
16512;SDS011;8369;48.030;11.598;2023-02-04T18:11:00;4.67;;;3.20;;
16512;SDS011;8369;48.030;11.598;2023-02-04T18:13:30;11.93;;;3.40;;
16512;SDS011;8369;48.030;11.598;2023-02-04T18:15:58;6.57;;;4.70;;
16512;SDS011;8369;48.030;11.598;2023-02-04T18:18:35;6.57;;;3.90;;
16512;SDS011;8369;48.030;11.598;2023-02-04T18:23:59;13.33;;;5.30;;
16512;SDS011;8369;48.030;11.598;2023-02-04T18:26:31;5.90;;;4.23;;
16512;SDS011;8369;48.030;11.598;2023-02-04T18:28:57;5.87;;;3.87;;
16512;SDS011;8369;48.030;11.598;2023-02-04T18:31:35;5.30;;;4.00;;
16512;SDS011;8369;48.030;11.598;2023-02-04T18:34:12;6.70;;;4.10;;
16512;SDS011;8369;48.030;11.598;2023-02-04T18:36:45;5.20;;;3.67;;
16512;SDS011;8369;48.030;11.598;2023-02-04T18:39:19;5.93;;;3.80;;
16512;SDS011;8369;48.030;11.598;2023-02-04T18:41:55;5.53;;;3.63;;
16512;SDS011;8369;48.030;11.598;2023-02-04T18:44:28;6.07;;;4.53;;
16512;SDS011;8369;48.030;11.598;2023-02-04T18:46:57;6.87;;;5.03;;
16512;SDS011;8369;48.030;11.598;2023-02-04T18:49:35;6.77;;;4.97;;
16512;SDS011;8369;48.030;11.598;2023-02-04T18:52:14;6.53;;;4.03;;
16512;SDS011;8369;48.030;11.598;2023-02-04T18:54:43;7.37;;;4.63;;
16512;SDS011;8369;48.030;11.598;2023-02-04T18:57:23;7.70;;;4.30;;
16512;SDS011;8369;48.030;11.598;2023-02-04T19:00:02;6.03;;;4.20;;
16512;SDS011;8369;48.030;11.598;2023-02-04T19:02:53;5.43;;;4.60;;
16512;SDS011;8369;48.030;11.598;2023-02-04T19:05:33;9.17;;;5.10;;
16512;SDS011;8369;48.030;11.598;2023-02-04T19:13:22;7.70;;;5.17;;
16512;SDS011;8369;48.030;11.598;2023-02-04T19:18:48;11.47;;;5.50;;
16512;SDS011;8369;48.030;11.598;2023-02-04T19:23:46;11.07;;;7.10;;
16512;SDS011;8369;48.030;11.598;2023-02-04T19:26:21;12.30;;;8.50;;
16512;SDS011;8369;48.030;11.598;2023-02-04T19:28:53;13.03;;;7.73;;
16512;SDS011;8369;48.030;11.598;2023-02-04T19:31:19;12.63;;;7.80;;
16512;SDS011;8369;48.030;11.598;2023-02-04T19:33:46;10.70;;;7.97;;
16512;SDS011;8369;48.030;11.598;2023-02-04T19:36:24;15.10;;;7.90;;
16512;SDS011;8369;48.030;11.598;2023-02-04T19:41:51;17.40;;;9.63;;
16512;SDS011;8369;48.030;11.598;2023-02-04T19:47:23;16.47;;;11.13;;
16512;SDS011;8369;48.030;11.598;2023-02-04T19:50:20;14.77;;;10.67;;
16512;SDS011;8369;48.030;11.598;2023-02-04T19:55:26;13.13;;;9.37;;
16512;SDS011;8369;48.030;11.598;2023-02-04T19:57:59;15.53;;;10.07;;
16512;SDS011;8369;48.030;11.598;2023-02-04T20:00:44;22.23;;;9.23;;
16512;SDS011;8369;48.030;11.598;2023-02-04T20:05:43;18.77;;;8.70;;
16512;SDS011;8369;48.030;11.598;2023-02-04T20:08:29;20.33;;;10.47;;
16512;SDS011;8369;48.030;11.598;2023-02-04T20:16:39;16.23;;;10.30;;
16512;SDS011;8369;48.030;11.598;2023-02-04T20:24:50;17.33;;;10.67;;
16512;SDS011;8369;48.030;11.598;2023-02-04T20:27:24;20.50;;;10.80;;
16512;SDS011;8369;48.030;11.598;2023-02-04T20:32:35;14.47;;;9.43;;
16512;SDS011;8369;48.030;11.598;2023-02-04T20:37:37;14.20;;;10.03;;
16512;SDS011;8369;48.030;11.598;2023-02-04T20:42:46;12.83;;;8.10;;
16512;SDS011;8369;48.030;11.598;2023-02-04T20:45:34;11.70;;;7.87;;
16512;SDS011;8369;48.030;11.598;2023-02-04T20:50:51;13.10;;;7.97;;
16512;SDS011;8369;48.030;11.598;2023-02-04T20:58:56;9.13;;;6.87;;
16512;SDS011;8369;48.030;11.598;2023-02-04T21:01:42;13.63;;;8.07;;
16512;SDS011;8369;48.030;11.598;2023-02-04T21:07:21;16.07;;;9.30;;
16512;SDS011;8369;48.030;11.598;2023-02-04T21:09:47;11.77;;;8.13;;
16512;SDS011;8369;48.030;11.598;2023-02-04T21:12:15;12.90;;;8.43;;
16512;SDS011;8369;48.030;11.598;2023-02-04T21:14:42;12.47;;;7.83;;
16512;SDS011;8369;48.030;11.598;2023-02-04T21:17:08;10.33;;;7.27;;
16512;SDS011;8369;48.030;11.598;2023-02-04T21:19:33;13.23;;;7.57;;
16512;SDS011;8369;48.030;11.598;2023-02-04T21:22:00;10.13;;;7.07;;
16512;SDS011;8369;48.030;11.598;2023-02-04T21:24:30;10.73;;;7.23;;
16512;SDS011;8369;48.030;11.598;2023-02-04T21:26:58;11.03;;;7.30;;
16512;SDS011;8369;48.030;11.598;2023-02-04T21:29:24;12.10;;;7.57;;
16512;SDS011;8369;48.030;11.598;2023-02-04T21:31:50;11.63;;;6.10;;
16512;SDS011;8369;48.030;11.598;2023-02-04T21:34:20;12.30;;;7.70;;
16512;SDS011;8369;48.030;11.598;2023-02-04T21:36:48;9.37;;;6.57;;
16512;SDS011;8369;48.030;11.598;2023-02-04T21:39:15;13.00;;;6.47;;
16512;SDS011;8369;48.030;11.598;2023-02-04T21:41:41;10.00;;;6.70;;
16512;SDS011;8369;48.030;11.598;2023-02-04T21:44:06;9.07;;;6.17;;
16512;SDS011;8369;48.030;11.598;2023-02-04T21:46:35;9.97;;;6.27;;
16512;SDS011;8369;48.030;11.598;2023-02-04T21:49:01;12.10;;;8.00;;
16512;SDS011;8369;48.030;11.598;2023-02-04T21:51:29;9.00;;;6.23;;
16512;SDS011;8369;48.030;11.598;2023-02-04T21:53:55;10.13;;;7.03;;
16512;SDS011;8369;48.030;11.598;2023-02-04T21:56:24;15.93;;;10.13;;
16512;SDS011;8369;48.030;11.598;2023-02-04T21:58:52;12.60;;;8.20;;
16512;SDS011;8369;48.030;11.598;2023-02-04T22:01:18;10.43;;;7.23;;
16512;SDS011;8369;48.030;11.598;2023-02-04T22:03:47;10.50;;;6.70;;
16512;SDS011;8369;48.030;11.598;2023-02-04T22:06:13;10.23;;;6.57;;
16512;SDS011;8369;48.030;11.598;2023-02-04T22:08:39;8.93;;;6.00;;
16512;SDS011;8369;48.030;11.598;2023-02-04T22:11:05;12.57;;;6.27;;
16512;SDS011;8369;48.030;11.598;2023-02-04T22:13:31;12.07;;;7.23;;
16512;SDS011;8369;48.030;11.598;2023-02-04T22:15:57;10.53;;;6.70;;
16512;SDS011;8369;48.030;11.598;2023-02-04T22:18:23;10.57;;;6.63;;
16512;SDS011;8369;48.030;11.598;2023-02-04T22:20:49;13.13;;;7.47;;
16512;SDS011;8369;48.030;11.598;2023-02-04T22:23:15;9.03;;;6.63;;
16512;SDS011;8369;48.030;11.598;2023-02-04T22:25:41;11.00;;;7.93;;
16512;SDS011;8369;48.030;11.598;2023-02-04T22:28:07;8.97;;;7.03;;
16512;SDS011;8369;48.030;11.598;2023-02-04T22:30:32;8.73;;;6.27;;
16512;SDS011;8369;48.030;11.598;2023-02-04T22:32:59;8.07;;;6.03;;
16512;SDS011;8369;48.030;11.598;2023-02-04T22:35:26;13.00;;;6.23;;
16512;SDS011;8369;48.030;11.598;2023-02-04T22:37:53;10.30;;;6.00;;
16512;SDS011;8369;48.030;11.598;2023-02-04T22:40:20;11.67;;;6.20;;
16512;SDS011;8369;48.030;11.598;2023-02-04T22:42:46;10.77;;;6.13;;
16512;SDS011;8369;48.030;11.598;2023-02-04T22:45:12;7.57;;;5.40;;
16512;SDS011;8369;48.030;11.598;2023-02-04T22:47:38;11.83;;;6.03;;
16512;SDS011;8369;48.030;11.598;2023-02-04T22:50:04;23.63;;;5.60;;
16512;SDS011;8369;48.030;11.598;2023-02-04T22:52:31;8.27;;;6.03;;
16512;SDS011;8369;48.030;11.598;2023-02-04T22:54:57;11.53;;;6.13;;
16512;SDS011;8369;48.030;11.598;2023-02-04T22:57:26;11.47;;;5.67;;
16512;SDS011;8369;48.030;11.598;2023-02-04T22:59:52;10.73;;;6.53;;
16512;SDS011;8369;48.030;11.598;2023-02-04T23:02:18;8.87;;;6.00;;
16512;SDS011;8369;48.030;11.598;2023-02-04T23:04:44;8.53;;;6.30;;
16512;SDS011;8369;48.030;11.598;2023-02-04T23:07:10;10.47;;;6.77;;
16512;SDS011;8369;48.030;11.598;2023-02-04T23:09:37;10.50;;;6.90;;
16512;SDS011;8369;48.030;11.598;2023-02-04T23:12:04;8.90;;;6.17;;
16512;SDS011;8369;48.030;11.598;2023-02-04T23:14:45;8.63;;;6.13;;
16512;SDS011;8369;48.030;11.598;2023-02-04T23:17:12;8.30;;;5.50;;
16512;SDS011;8369;48.030;11.598;2023-02-04T23:19:40;6.37;;;5.07;;
16512;SDS011;8369;48.030;11.598;2023-02-04T23:22:07;9.70;;;5.60;;
16512;SDS011;8369;48.030;11.598;2023-02-04T23:24:37;6.20;;;4.67;;
16512;SDS011;8369;48.030;11.598;2023-02-04T23:27:04;11.50;;;4.33;;
16512;SDS011;8369;48.030;11.598;2023-02-04T23:29:30;7.53;;;4.90;;
16512;SDS011;8369;48.030;11.598;2023-02-04T23:31:59;9.47;;;6.33;;
16512;SDS011;8369;48.030;11.598;2023-02-04T23:34:25;8.37;;;5.80;;
16512;SDS011;8369;48.030;11.598;2023-02-04T23:36:52;12.23;;;6.93;;
16512;SDS011;8369;48.030;11.598;2023-02-04T23:39:18;9.43;;;5.90;;
16512;SDS011;8369;48.030;11.598;2023-02-04T23:41:48;11.13;;;6.93;;
16512;SDS011;8369;48.030;11.598;2023-02-04T23:44:15;8.90;;;5.87;;
16512;SDS011;8369;48.030;11.598;2023-02-04T23:46:41;8.33;;;4.90;;
16512;SDS011;8369;48.030;11.598;2023-02-04T23:49:08;9.20;;;4.50;;
16512;SDS011;8369;48.030;11.598;2023-02-04T23:51:38;8.37;;;5.07;;
16512;SDS011;8369;48.030;11.598;2023-02-04T23:54:04;7.43;;;4.70;;
16512;SDS011;8369;48.030;11.598;2023-02-04T23:56:31;6.77;;;4.47;;
16512;SDS011;8369;48.030;11.598;2023-02-04T23:58:57;6.00;;;4.17;;
